Time,TemperatureF,DewpointF,PressureIn,WindDirection,WindDirectionDegrees,WindSpeedMPH,WindSpeedGustMPH,Humidity,HourlyPrecipIn,Conditions,Clouds,dailyrainin,SoftwareType,DateUTC
2013-03-08 00:04:00,31.2,24.5,30.23,West,269,1.0,0.0,76,0.00,,SKC,0.00,VWS V14.01,2013-03-08 05:04:00,
2013-03-08 00:06:00,31.3,24.6,30.22,West,269,0.0,0.0,76,0.00,,SKC,0.00,VWS V14.01,2013-03-08 05:06:00,
2013-03-08 00:10:00,31.2,24.5,30.22,West,270,1.0,0.0,76,0.00,,SKC,0.00,VWS V14.01,2013-03-08 05:10:00,
2013-03-08 00:15:00,31.3,24.6,30.22,West,270,1.0,0.0,76,0.00,,SKC,0.00,VWS V14.01,2013-03-08 05:15:00,
2013-03-08 00:16:00,31.3,24.6,30.22,West,269,1.0,0.0,76,0.00,,SKC,0.00,VWS V14.01,2013-03-08 05:16:00,
2013-03-08 00:22:00,31.4,24.4,30.22,West,270,1.0,0.0,75,0.00,,SKC,0.00,VWS V14.01,2013-03-08 05:22:00,
2013-03-08 00:28:00,31.7,24.4,30.22,West,274,0.0,0.0,74,0.00,,SKC,0.00,VWS V14.01,2013-03-08 05:28:00,
2013-03-08 00:34:00,31.6,24.3,30.22,West,274,0.0,0.0,74,0.00,,SKC,0.00,VWS V14.01,2013-03-08 05:34:00,
2013-03-08 00:40:00,31.0,24.0,30.21,West,274,0.0,0.0,75,0.00,,SKC,0.00,VWS V14.01,2013-03-08 05:40:00,
2013-03-08 00:45:00,31.1,24.1,30.21,West,274,0.0,0.0,75,0.00,,SKC,0.00,VWS V14.01,2013-03-08 05:45:00,
2013-03-08 00:50:00,31.2,24.2,30.22,West,274,0.0,0.0,75,0.00,,SKC,0.00,VWS V14.01,2013-03-08 05:50:00,
2013-03-08 00:55:00,31.1,24.1,30.22,West,274,0.0,0.0,75,0.00,,SKC,0.00,VWS V14.01,2013-03-08 05:55:00,
2013-03-08 01:00:00,31.0,24.0,30.21,West,274,0.0,0.0,75,0.00,,SKC,0.00,VWS V14.01,2013-03-08 06:00:00,
2013-03-08 01:05:00,31.1,24.1,30.21,West,262,0.0,0.0,75,0.00,,SKC,0.00,VWS V14.01,2013-03-08 06:05:00,
2013-03-08 01:11:00,31.0,23.7,30.22,West,262,0.0,0.0,74,0.00,,SKC,0.00,VWS V14.01,2013-03-08 06:11:00,
2013-03-08 01:16:00,30.8,23.8,30.21,West,262,0.0,0.0,75,0.00,,SKC,0.00,VWS V14.01,2013-03-08 06:16:00,
2013-03-08 01:22:00,30.4,23.8,30.21,West,262,0.0,0.0,76,0.00,,SKC,0.00,VWS V14.01,2013-03-08 06:22:00,
2013-03-08 01:28:00,30.0,23.4,30.22,West,262,0.0,0.0,76,0.00,,SKC,0.00,VWS V14.01,2013-03-08 06:28:00,
2013-03-08 01:34:00,29.8,23.5,30.21,West,262,0.0,0.0,77,0.00,,SKC,0.00,VWS V14.01,2013-03-08 06:34:00,
2013-03-08 01:40:00,29.6,23.3,30.21,West,262,0.0,0.0,77,0.00,,SKC,0.00,VWS V14.01,2013-03-08 06:40:00,
2013-03-08 01:45:00,29.6,23.6,30.21,West,262,0.0,0.0,78,0.00,,SKC,0.00,VWS V14.01,2013-03-08 06:45:00,
2013-03-08 01:51:00,30.0,24.0,30.21,West,262,0.0,0.0,78,0.00,,SKC,0.00,VWS V14.01,2013-03-08 06:51:00,
2013-03-08 01:56:00,30.1,23.8,30.20,West,262,0.0,0.0,77,0.00,,SKC,0.00,VWS V14.01,2013-03-08 06:56:00,
2013-03-08 02:02:00,30.0,23.7,30.20,West,262,0.0,0.0,77,0.00,,SKC,0.00,VWS V14.01,2013-03-08 07:02:00,
2013-03-08 02:08:00,30.2,23.9,30.20,SW,233,1.0,0.0,77,0.00,,SKC,0.00,VWS V14.01,2013-03-08 07:08:00,
2013-03-08 02:14:00,30.1,23.5,30.19,SW,233,1.0,0.0,76,0.00,,SKC,0.00,VWS V14.01,2013-03-08 07:14:00,
2013-03-08 02:20:00,29.8,23.5,30.19,SW,232,0.0,0.0,77,0.00,,SKC,0.00,VWS V14.01,2013-03-08 07:20:00,
2013-03-08 02:25:00,29.8,23.8,30.19,SW,233,0.0,0.0,78,0.00,,SKC,0.00,VWS V14.01,2013-03-08 07:25:00,
2013-03-08 02:31:00,29.7,23.7,30.19,SW,232,0.0,0.0,78,0.00,,SKC,0.00,VWS V14.01,2013-03-08 07:31:00,
2013-03-08 02:36:00,29.8,23.8,30.19,SW,231,2.0,0.0,78,0.00,,SKC,0.00,VWS V14.01,2013-03-08 07:36:00,
2013-03-08 02:42:00,30.0,23.7,30.19,SW,235,1.0,0.0,77,0.00,,SKC,0.00,VWS V14.01,2013-03-08 07:42:00,
2013-03-08 02:48:00,30.1,23.8,30.19,WSW,256,0.0,0.0,77,0.00,,SKC,0.00,VWS V14.01,2013-03-08 07:48:00,
2013-03-08 02:54:00,30.1,23.8,30.19,WSW,256,0.0,0.0,77,0.00,,SKC,0.00,VWS V14.01,2013-03-08 07:54:00,
2013-03-08 03:00:00,29.9,23.6,30.19,WSW,255,0.0,0.0,77,0.00,,SKC,0.00,VWS V14.01,2013-03-08 08:00:00,
2013-03-08 03:05:00,29.9,23.6,30.19,SW,225,1.0,0.0,77,0.00,,SKC,0.00,VWS V14.01,2013-03-08 08:05:00,
2013-03-08 03:10:00,30.0,23.7,30.19,SW,228,0.0,0.0,77,0.00,,SKC,0.00,VWS V14.01,2013-03-08 08:10:00,
2013-03-08 03:15:00,29.8,23.5,30.19,SW,228,0.0,0.0,77,0.00,,SKC,0.00,VWS V14.01,2013-03-08 08:15:00,
2013-03-08 03:20:00,29.7,23.7,30.19,WSW,238,0.0,0.0,78,0.00,,SKC,0.00,VWS V14.01,2013-03-08 08:20:00,
2013-03-08 03:25:00,29.7,23.7,30.19,SW,235,0.0,0.0,78,0.00,,SKC,0.00,VWS V14.01,2013-03-08 08:25:00,
2013-03-08 03:31:00,29.6,23.6,30.19,SW,235,0.0,0.0,78,0.00,,SKC,0.00,VWS V14.01,2013-03-08 08:31:00,
2013-03-08 03:36:00,29.6,23.6,30.18,SW,231,1.0,0.0,78,0.00,,SKC,0.00,VWS V14.01,2013-03-08 08:36:00,
2013-03-08 03:41:00,29.7,23.7,30.18,SW,232,1.0,0.0,78,0.00,,SKC,0.00,VWS V14.01,2013-03-08 08:41:00,
2013-03-08 03:47:00,29.7,23.7,30.18,SW,232,0.0,0.0,78,0.00,,SKC,0.00,VWS V14.01,2013-03-08 08:47:00,
2013-03-08 03:53:00,29.7,23.7,30.18,SW,232,0.0,0.0,78,0.00,,SKC,0.00,VWS V14.01,2013-03-08 08:53:00,
2013-03-08 03:59:00,29.9,23.9,30.18,SW,232,0.0,0.0,78,0.00,,SKC,0.00,VWS V14.01,2013-03-08 08:59:00,
2013-03-08 04:05:00,29.9,23.9,30.18,SW,232,0.0,0.0,78,0.00,,SKC,0.00,VWS V14.01,2013-03-08 09:05:00,
2013-03-08 04:10:00,29.7,23.7,30.18,SW,233,0.0,0.0,78,0.00,,SKC,0.00,VWS V14.01,2013-03-08 09:10:00,
2013-03-08 04:15:00,29.5,23.8,30.17,SW,232,1.0,0.0,79,0.00,,SKC,0.00,VWS V14.01,2013-03-08 09:15:00,
2013-03-08 04:20:00,29.3,23.6,30.18,SW,232,1.0,0.0,79,0.00,,SKC,0.00,VWS V14.01,2013-03-08 09:20:00,
2013-03-08 04:25:00,29.4,23.7,30.18,SW,229,1.0,0.0,79,0.00,,SKC,0.00,VWS V14.01,2013-03-08 09:25:00,
2013-03-08 04:30:00,29.4,23.7,30.18,WSW,239,2.0,0.0,79,0.00,,SKC,0.00,VWS V14.01,2013-03-08 09:30:00,
2013-03-08 04:35:00,29.5,23.8,30.18,SW,230,0.0,0.0,79,0.00,,SKC,0.00,VWS V14.01,2013-03-08 09:35:00,
2013-03-08 04:40:00,29.5,23.8,30.19,SW,236,1.0,0.0,79,0.00,,SKC,0.00,VWS V14.01,2013-03-08 09:40:00,
2013-03-08 04:45:00,29.5,23.8,30.19,SW,236,0.0,0.0,79,0.00,,SKC,0.00,VWS V14.01,2013-03-08 09:45:00,
2013-03-08 04:50:00,29.4,23.7,30.19,SW,236,0.0,0.0,79,0.00,,SKC,0.00,VWS V14.01,2013-03-08 09:50:00,
2013-03-08 04:55:00,29.3,23.6,30.19,SW,235,1.0,0.0,79,0.00,,SKC,0.00,VWS V14.01,2013-03-08 09:55:00,
2013-03-08 05:00:00,29.2,23.5,30.20,SW,235,0.0,0.0,79,0.00,,SKC,0.00,VWS V14.01,2013-03-08 10:00:00,
2013-03-08 05:05:00,29.2,23.8,30.19,WSW,245,0.0,0.0,80,0.00,,SKC,0.00,VWS V14.01,2013-03-08 10:05:00,
2013-03-08 05:10:00,29.3,23.9,30.19,West,269,0.0,0.0,80,0.00,,SKC,0.00,VWS V14.01,2013-03-08 10:10:00,
2013-03-08 05:15:00,29.4,24.0,30.20,West,275,0.0,0.0,80,0.00,,SKC,0.00,VWS V14.01,2013-03-08 10:15:00,
2013-03-08 05:20:00,29.2,23.8,30.20,West,274,0.0,0.0,80,0.00,,SKC,0.00,VWS V14.01,2013-03-08 10:20:00,
2013-03-08 05:25:00,29.4,24.0,30.20,SW,232,1.0,0.0,80,0.00,,SKC,0.00,VWS V14.01,2013-03-08 10:25:00,
2013-03-08 05:30:00,29.6,23.9,30.20,WSW,242,0.0,0.0,79,0.00,,SKC,0.00,VWS V14.01,2013-03-08 10:30:00,
2013-03-08 05:35:00,29.7,24.3,30.21,WSW,242,0.0,0.0,80,0.00,,SKC,0.00,VWS V14.01,2013-03-08 10:35:00,
2013-03-08 05:40:00,29.7,24.0,30.21,WSW,242,0.0,0.0,79,0.00,,SKC,0.00,VWS V14.01,2013-03-08 10:40:00,
2013-03-08 05:45:00,29.8,24.1,30.22,SW,232,1.0,0.0,79,0.00,,SKC,0.00,VWS V14.01,2013-03-08 10:45:00,
2013-03-08 05:51:00,30.0,24.3,30.22,WSW,244,2.0,0.0,79,0.00,,SKC,0.00,VWS V14.01,2013-03-08 10:51:00,
2013-03-08 05:57:00,30.0,24.0,30.22,West,259,1.0,0.0,78,0.00,,SKC,0.00,VWS V14.01,2013-03-08 10:57:00,
2013-03-08 06:03:00,30.0,24.0,30.22,WSW,242,1.0,0.0,78,0.00,,SKC,0.00,VWS V14.01,2013-03-08 11:03:00,
2013-03-08 06:09:00,30.0,24.0,30.22,WSW,239,0.0,0.0,78,0.00,,SKC,0.00,VWS V14.01,2013-03-08 11:09:00,
2013-03-08 06:15:00,29.8,24.1,30.22,WSW,240,0.0,0.0,79,0.00,,SKC,0.00,VWS V14.01,2013-03-08 11:15:00,
2013-03-08 06:20:00,29.6,23.9,30.22,WSW,239,0.0,0.0,79,0.00,,SKC,0.00,VWS V14.01,2013-03-08 11:20:00,
2013-03-08 06:25:00,29.6,23.9,30.22,WSW,239,0.0,0.0,79,0.00,,SKC,0.00,VWS V14.01,2013-03-08 11:25:00,
2013-03-08 06:31:00,29.5,23.8,30.22,SW,235,0.0,0.0,79,0.00,,SKC,0.00,VWS V14.01,2013-03-08 11:31:00,
2013-03-08 06:37:00,29.3,23.6,30.22,SW,235,1.0,0.0,79,0.00,,SKC,0.00,VWS V14.01,2013-03-08 11:37:00,
2013-03-08 06:43:00,29.3,23.9,30.22,West,280,0.0,0.0,80,0.00,,SKC,0.00,VWS V14.01,2013-03-08 11:43:00,
2013-03-08 06:49:00,29.7,24.3,30.22,West,278,1.0,0.0,80,0.00,,SKC,0.00,VWS V14.01,2013-03-08 11:49:00,
2013-03-08 06:55:00,30.2,24.5,30.22,West,274,0.0,0.0,79,0.00,,SKC,0.00,VWS V14.01,2013-03-08 11:55:00,
2013-03-08 07:00:00,30.4,24.4,30.22,West,264,0.0,0.0,78,0.00,,SKC,0.00,VWS V14.01,2013-03-08 12:00:00,
2013-03-08 07:05:00,30.4,24.4,30.22,WSW,255,1.0,0.0,78,0.00,,SKC,0.00,VWS V14.01,2013-03-08 12:05:00,
2013-03-08 07:10:00,30.8,24.8,30.22,WSW,242,0.0,0.0,78,0.00,,SKC,0.00,VWS V14.01,2013-03-08 12:10:00,
2013-03-08 07:15:00,31.1,24.8,30.23,West,260,0.0,0.0,77,0.00,,SKC,0.00,VWS V14.01,2013-03-08 12:15:00,
2013-03-08 07:20:00,31.4,24.7,30.23,West,259,0.0,0.0,76,0.00,,SKC,0.00,VWS V14.01,2013-03-08 12:20:00,
2013-03-08 07:25:00,31.9,24.9,30.23,West,270,1.0,0.0,75,0.00,,SKC,0.00,VWS V14.01,2013-03-08 12:25:00,
2013-03-08 07:30:00,32.5,25.1,30.23,West,280,1.0,0.0,74,0.00,,SKC,0.00,VWS V14.01,2013-03-08 12:30:00,
2013-03-08 07:35:00,33.2,25.5,30.23,West,278,1.0,0.0,73,0.00,,SKC,0.00,VWS V14.01,2013-03-08 12:35:00,
2013-03-08 07:40:00,33.8,25.7,30.23,WNW,288,1.0,0.0,72,0.00,,SKC,0.00,VWS V14.01,2013-03-08 12:40:00,
2013-03-08 07:45:00,34.2,25.8,30.24,WNW,288,1.0,0.0,71,0.00,,SKC,0.00,VWS V14.01,2013-03-08 12:45:00,
2013-03-08 07:52:00,34.8,26.0,30.24,WNW,291,2.0,0.0,70,0.00,,SKC,0.00,VWS V14.01,2013-03-08 12:52:00,
2013-03-08 07:58:00,35.5,26.7,30.24,NW,312,2.0,0.0,70,0.00,,SKC,0.00,VWS V14.01,2013-03-08 12:58:00,
2013-03-08 08:04:00,36.1,26.6,30.24,NW,304,1.0,0.0,68,0.00,,SKC,0.00,VWS V14.01,2013-03-08 13:04:00,
2013-03-08 08:10:00,36.8,27.2,30.24,WNW,289,1.0,0.0,68,0.00,,SKC,0.00,VWS V14.01,2013-03-08 13:10:00,
2013-03-08 08:15:00,37.6,27.3,30.25,WNW,301,1.0,0.0,66,0.00,,SKC,0.00,VWS V14.01,2013-03-08 13:15:00,
2013-03-08 08:20:00,38.2,27.9,30.25,WNW,299,1.0,0.0,66,0.00,,SKC,0.00,VWS V14.01,2013-03-08 13:20:00,
2013-03-08 08:25:00,38.9,27.8,30.25,West,278,1.0,0.0,64,0.00,,SKC,0.00,VWS V14.01,2013-03-08 13:25:00,
2013-03-08 08:30:00,39.2,27.3,30.25,NW,315,1.0,0.0,62,0.00,,SKC,0.00,VWS V14.01,2013-03-08 13:30:00,
2013-03-08 08:35:00,39.4,27.1,30.25,North,351,1.0,0.0,61,0.00,,SKC,0.00,VWS V14.01,2013-03-08 13:35:00,
2013-03-08 08:40:00,39.8,28.6,30.26,West,274,2.0,0.0,64,0.00,,SKC,0.00,VWS V14.01,2013-03-08 13:40:00,
2013-03-08 08:45:00,40.3,28.3,30.25,WNW,283,0.0,0.0,62,0.00,,SKC,0.00,VWS V14.01,2013-03-08 13:45:00,
2013-03-08 08:50:00,40.8,28.4,30.25,WNW,302,3.0,0.0,61,0.00,,SKC,0.00,VWS V14.01,2013-03-08 13:50:00,
2013-03-08 08:55:00,41.0,28.6,30.25,WNW,283,1.0,0.0,61,0.00,,SKC,0.00,VWS V14.01,2013-03-08 13:55:00,
2013-03-08 09:00:00,41.3,28.1,30.26,NW,325,3.0,0.0,59,0.00,,SKC,0.00,VWS V14.01,2013-03-08 14:00:00,
2013-03-08 09:05:00,41.4,27.3,30.25,NW,311,4.0,0.0,57,0.00,,SKC,0.00,VWS V14.01,2013-03-08 14:05:00,
2013-03-08 09:10:00,41.3,27.6,30.25,NNW,332,3.0,0.0,58,0.00,,SKC,0.00,VWS V14.01,2013-03-08 14:10:00,
2013-03-08 09:15:00,41.7,28.4,30.25,NW,317,5.0,0.0,59,0.00,,SKC,0.00,VWS V14.01,2013-03-08 14:15:00,
2013-03-08 09:22:00,41.6,27.1,30.26,WNW,298,5.0,0.0,56,0.00,,SKC,0.00,VWS V14.01,2013-03-08 14:22:00,
2013-03-08 09:28:00,42.1,27.1,30.26,WNW,293,2.0,0.0,55,0.00,,SKC,0.00,VWS V14.01,2013-03-08 14:28:00,
2013-03-08 09:34:00,42.5,27.5,30.26,NW,316,3.0,0.0,55,0.00,,SKC,0.00,VWS V14.01,2013-03-08 14:34:00,
2013-03-08 09:40:00,42.7,26.8,30.26,NNW,333,7.0,0.0,53,0.00,,SKC,0.00,VWS V14.01,2013-03-08 14:40:00,
2013-03-08 09:45:00,42.4,26.0,30.25,WNW,302,7.0,0.0,52,0.00,,SKC,0.00,VWS V14.01,2013-03-08 14:45:00,
2013-03-08 09:50:00,42.9,27.0,30.25,NNW,332,4.0,0.0,53,0.00,,SKC,0.00,VWS V14.01,2013-03-08 14:50:00,
2013-03-08 09:55:00,43.2,27.2,30.25,NNW,347,6.0,0.0,53,0.00,,SKC,0.00,VWS V14.01,2013-03-08 14:55:00,
2013-03-08 10:00:00,43.5,26.1,30.25,WNW,293,5.0,0.0,50,0.00,,SKC,0.00,VWS V14.01,2013-03-08 15:00:00,
2013-03-08 10:05:00,43.7,26.8,30.25,NNW,327,6.0,0.0,51,0.00,,SKC,0.00,VWS V14.01,2013-03-08 15:05:00,
2013-03-08 10:10:00,44.0,25.6,30.25,WNW,302,10.0,0.0,48,0.00,,SKC,0.00,VWS V14.01,2013-03-08 15:10:00,
2013-03-08 10:15:00,43.9,25.5,30.25,NNE,16,5.0,0.0,48,0.00,,SKC,0.00,VWS V14.01,2013-03-08 15:15:00,
2013-03-08 10:20:00,44.7,26.7,30.25,NNW,327,4.0,0.0,49,0.00,,SKC,0.00,VWS V14.01,2013-03-08 15:20:00,
2013-03-08 10:26:00,44.7,25.2,30.26,NE,41,4.0,0.0,46,0.00,,SKC,0.00,VWS V14.01,2013-03-08 15:26:00,
2013-03-08 10:32:00,45.0,26.0,30.25,NW,325,7.0,0.0,47,0.00,,SKC,0.00,VWS V14.01,2013-03-08 15:32:00,
2013-03-08 10:38:00,45.0,25.0,30.25,WNW,288,4.0,0.0,45,0.00,,SKC,0.00,VWS V14.01,2013-03-08 15:38:00,
2013-03-08 10:44:00,45.6,25.5,30.25,WNW,298,5.0,0.0,45,0.00,,SKC,0.00,VWS V14.01,2013-03-08 15:44:00,
2013-03-08 10:50:00,45.8,26.2,30.25,WNW,284,3.0,0.0,46,0.00,,SKC,0.00,VWS V14.01,2013-03-08 15:50:00,
2013-03-08 10:55:00,45.9,26.3,30.25,NW,318,4.0,0.0,46,0.00,,SKC,0.00,VWS V14.01,2013-03-08 15:55:00,
2013-03-08 11:00:00,46.1,26.0,30.24,NW,313,4.0,0.0,45,0.00,,SKC,0.00,VWS V14.01,2013-03-08 16:00:00,
2013-03-08 11:05:00,46.3,26.1,30.24,WSW,255,2.0,0.0,45,0.00,,SKC,0.00,VWS V14.01,2013-03-08 16:05:00,
2013-03-08 11:10:00,46.6,26.9,30.24,NNW,333,3.0,0.0,46,0.00,,SKC,0.00,VWS V14.01,2013-03-08 16:10:00,
2013-03-08 11:17:00,46.6,26.4,30.24,NNW,342,2.0,0.0,45,0.00,,SKC,0.00,VWS V14.01,2013-03-08 16:17:00,
2013-03-08 11:23:00,46.7,26.0,30.24,West,276,2.0,0.0,44,0.00,,SKC,0.00,VWS V14.01,2013-03-08 16:23:00,
2013-03-08 11:29:00,47.0,26.2,30.24,NW,312,2.0,0.0,44,0.00,,SKC,0.00,VWS V14.01,2013-03-08 16:29:00,
2013-03-08 11:35:00,48.0,26.0,30.23,North,350,3.0,0.0,42,0.00,,SKC,0.00,VWS V14.01,2013-03-08 16:35:00,
2013-03-08 11:40:00,48.1,26.7,30.23,WNW,301,6.0,0.0,43,0.00,,SKC,0.00,VWS V14.01,2013-03-08 16:40:00,
2013-03-08 11:45:00,47.8,25.8,30.23,NNE,16,6.0,0.0,42,0.00,,SKC,0.00,VWS V14.01,2013-03-08 16:45:00,
2013-03-08 11:51:00,48.5,26.5,30.23,WNW,283,2.0,0.0,42,0.00,,SKC,0.00,VWS V14.01,2013-03-08 16:51:00,
2013-03-08 11:57:00,48.5,25.3,30.23,SE,146,1.0,0.0,40,0.00,,SKC,0.00,VWS V14.01,2013-03-08 16:57:00,
2013-03-08 12:04:00,48.6,26.0,30.23,WNW,299,6.0,0.0,41,0.00,,SKC,0.00,VWS V14.01,2013-03-08 17:04:00,
2013-03-08 12:10:00,48.3,25.1,30.23,North,356,5.0,0.0,40,0.00,,SKC,0.00,VWS V14.01,2013-03-08 17:10:00,
2013-03-08 12:15:00,48.7,26.1,30.22,NNW,336,5.0,0.0,41,0.00,,SKC,0.00,VWS V14.01,2013-03-08 17:15:00,
2013-03-08 12:22:00,48.8,25.6,30.22,NNW,328,4.0,0.0,40,0.00,,SKC,0.00,VWS V14.01,2013-03-08 17:22:00,
2013-03-08 12:28:00,49.6,26.9,30.22,WNW,285,3.0,0.0,41,0.00,,SKC,0.00,VWS V14.01,2013-03-08 17:28:00,
2013-03-08 12:34:00,50.1,25.5,30.21,WNW,302,3.0,0.0,38,0.00,,SKC,0.00,VWS V14.01,2013-03-08 17:34:00,
2013-03-08 12:40:00,49.4,25.5,30.21,West,273,3.0,0.0,39,0.00,,SKC,0.00,VWS V14.01,2013-03-08 17:40:00,
2013-03-08 12:45:00,50.0,24.8,30.20,NW,323,4.0,0.0,37,0.00,,SKC,0.00,VWS V14.01,2013-03-08 17:45:00,
2013-03-08 12:52:00,50.1,26.1,30.19,NNW,345,1.0,0.0,39,0.00,,SKC,0.00,VWS V14.01,2013-03-08 17:52:00,
2013-03-08 12:58:00,50.2,24.3,30.20,NNW,337,6.0,0.0,36,0.00,,SKC,0.00,VWS V14.01,2013-03-08 17:58:00,
2013-03-08 13:04:00,50.8,26.1,30.19,NW,326,5.0,0.0,38,0.00,,SKC,0.00,VWS V14.01,2013-03-08 18:04:00,
2013-03-08 13:10:00,50.9,25.6,30.18,WNW,290,5.0,0.0,37,0.00,,SKC,0.00,VWS V14.01,2013-03-08 18:10:00,
2013-03-08 13:15:00,51.2,25.2,30.18,West,281,3.0,0.0,36,0.00,,SKC,0.00,VWS V14.01,2013-03-08 18:15:00,
2013-03-08 13:20:00,51.0,25.0,30.18,North,349,3.0,0.0,36,0.00,,SKC,0.00,VWS V14.01,2013-03-08 18:20:00,
2013-03-08 13:25:00,51.5,26.1,30.17,WNW,290,2.0,0.0,37,0.00,,SKC,0.00,VWS V14.01,2013-03-08 18:25:00,
2013-03-08 13:30:00,51.7,26.3,30.17,WSW,248,4.0,0.0,37,0.00,,SKC,0.00,VWS V14.01,2013-03-08 18:30:00,
2013-03-08 13:35:00,52.0,25.9,30.17,West,276,6.0,0.0,36,0.00,,SKC,0.00,VWS V14.01,2013-03-08 18:35:00,
2013-03-08 13:40:00,52.1,25.3,30.17,NW,319,2.0,0.0,35,0.00,,SKC,0.00,VWS V14.01,2013-03-08 18:40:00,
2013-03-08 13:45:00,52.2,25.4,30.17,NW,316,4.0,0.0,35,0.00,,SKC,0.00,VWS V14.01,2013-03-08 18:45:00,
2013-03-08 13:50:00,51.8,25.7,30.16,WNW,289,4.0,0.0,36,0.00,,SKC,0.00,VWS V14.01,2013-03-08 18:50:00,
2013-03-08 13:55:00,52.0,26.5,30.16,NW,315,1.0,0.0,37,0.00,,SKC,0.00,VWS V14.01,2013-03-08 18:55:00,
2013-03-08 14:00:00,52.3,24.8,30.16,WNW,302,2.0,0.0,34,0.00,,SKC,0.00,VWS V14.01,2013-03-08 19:00:00,
2013-03-08 14:06:00,52.4,24.9,30.16,NNW,333,4.0,0.0,34,0.00,,SKC,0.00,VWS V14.01,2013-03-08 19:06:00,
2013-03-08 14:12:00,52.8,23.8,30.16,North,4,7.0,0.0,32,0.00,,SKC,0.00,VWS V14.01,2013-03-08 19:12:00,
2013-03-08 14:18:00,52.6,26.4,30.15,WNW,297,2.0,0.0,36,0.00,,SKC,0.00,VWS V14.01,2013-03-08 19:18:00,
2013-03-08 14:24:00,52.8,25.9,30.16,West,270,1.0,0.0,35,0.00,,SKC,0.00,VWS V14.01,2013-03-08 19:24:00,
2013-03-08 14:30:00,53.4,25.0,30.16,NNW,345,2.0,0.0,33,0.00,,SKC,0.00,VWS V14.01,2013-03-08 19:30:00,
2013-03-08 14:37:00,53.7,25.3,30.15,WNW,298,3.0,0.0,33,0.00,,SKC,0.00,VWS V14.01,2013-03-08 19:37:00,
2013-03-08 14:43:00,53.4,25.0,30.16,NW,319,3.0,0.0,33,0.00,,SKC,0.00,VWS V14.01,2013-03-08 19:43:00,
2013-03-08 14:49:00,53.7,26.7,30.16,WNW,293,2.0,0.0,35,0.00,,SKC,0.00,VWS V14.01,2013-03-08 19:49:00,
2013-03-08 14:55:00,53.7,24.6,30.16,NNW,330,2.0,0.0,32,0.00,,SKC,0.00,VWS V14.01,2013-03-08 19:55:00,
2013-03-08 15:00:00,54.0,25.6,30.16,NNE,15,1.0,0.0,33,0.00,,SKC,0.00,VWS V14.01,2013-03-08 20:00:00,
2013-03-08 15:07:00,54.0,25.6,30.16,WNW,287,2.0,0.0,33,0.00,,SKC,0.00,VWS V14.01,2013-03-08 20:07:00,
2013-03-08 15:13:00,54.3,25.8,30.16,NW,315,1.0,0.0,33,0.00,,SKC,0.00,VWS V14.01,2013-03-08 20:13:00,
2013-03-08 15:19:00,54.1,24.9,30.16,NW,326,6.0,0.0,32,0.00,,SKC,0.00,VWS V14.01,2013-03-08 20:19:00,
2013-03-08 15:25:00,53.9,24.7,30.16,NW,311,5.0,0.0,32,0.00,,SKC,0.00,VWS V14.01,2013-03-08 20:25:00,
2013-03-08 15:30:00,54.0,24.8,30.16,WNW,297,1.0,0.0,32,0.00,,SKC,0.00,VWS V14.01,2013-03-08 20:30:00,
2013-03-08 15:35:00,54.2,26.5,30.16,WSW,239,2.0,0.0,34,0.00,,SKC,0.00,VWS V14.01,2013-03-08 20:35:00,
2013-03-08 15:40:00,54.3,25.8,30.16,NNW,327,1.0,0.0,33,0.00,,SKC,0.00,VWS V14.01,2013-03-08 20:40:00,
2013-03-08 15:45:00,54.5,26.0,30.16,WNW,284,2.0,0.0,33,0.00,,SKC,0.00,VWS V14.01,2013-03-08 20:45:00,
2013-03-08 15:50:00,54.8,26.3,30.16,WNW,295,3.0,0.0,33,0.00,,SKC,0.00,VWS V14.01,2013-03-08 20:50:00,
2013-03-08 15:55:00,54.4,25.9,30.16,SW,220,1.0,0.0,33,0.00,,SKC,0.00,VWS V14.01,2013-03-08 20:55:00,
2013-03-08 16:00:00,54.5,26.0,30.16,NW,304,2.0,0.0,33,0.00,,SKC,0.00,VWS V14.01,2013-03-08 21:00:00,
2013-03-08 16:07:00,54.8,25.5,30.16,SSW,205,3.0,0.0,32,0.00,,SKC,0.00,VWS V14.01,2013-03-08 21:07:00,
2013-03-08 16:13:00,54.5,26.0,30.16,North,352,2.0,0.0,33,0.00,,SKC,0.00,VWS V14.01,2013-03-08 21:13:00,
2013-03-08 16:19:00,54.6,25.4,30.16,West,262,1.0,0.0,32,0.00,,SKC,0.00,VWS V14.01,2013-03-08 21:19:00,
2013-03-08 16:25:00,54.8,25.5,30.16,NNW,328,5.0,0.0,32,0.00,,SKC,0.00,VWS V14.01,2013-03-08 21:25:00,
2013-03-08 16:30:00,54.5,25.3,30.17,West,269,4.0,0.0,32,0.00,,SKC,0.00,VWS V14.01,2013-03-08 21:30:00,
2013-03-08 16:35:00,54.3,26.5,30.17,NW,304,4.0,0.0,34,0.00,,SKC,0.00,VWS V14.01,2013-03-08 21:35:00,
2013-03-08 16:40:00,53.8,24.6,30.17,NNW,347,2.0,0.0,32,0.00,,SKC,0.00,VWS V14.01,2013-03-08 21:40:00,
2013-03-08 16:45:00,53.7,26.0,30.17,WSW,245,0.0,0.0,34,0.00,,SKC,0.00,VWS V14.01,2013-03-08 21:45:00,
2013-03-08 16:51:00,54.4,25.9,30.17,NW,314,3.0,0.0,33,0.00,,SKC,0.00,VWS V14.01,2013-03-08 21:51:00,
2013-03-08 16:57:00,54.2,25.0,30.17,NW,312,4.0,0.0,32,0.00,,SKC,0.00,VWS V14.01,2013-03-08 21:57:00,
2013-03-08 17:03:00,53.7,24.6,30.17,NW,307,2.0,0.0,32,0.00,,SKC,0.00,VWS V14.01,2013-03-08 22:03:00,
2013-03-08 17:09:00,53.5,24.4,30.18,NNW,337,2.0,0.0,32,0.00,,SKC,0.00,VWS V14.01,2013-03-08 22:09:00,
2013-03-08 17:15:00,53.2,24.9,30.18,NNW,347,4.0,0.0,33,0.00,,SKC,0.00,VWS V14.01,2013-03-08 22:15:00,
2013-03-08 17:20:00,52.7,23.7,30.18,NW,326,4.0,0.0,32,0.00,,SKC,0.00,VWS V14.01,2013-03-08 22:20:00,
2013-03-08 17:25:00,52.5,24.2,30.18,North,358,3.0,0.0,33,0.00,,SKC,0.00,VWS V14.01,2013-03-08 22:25:00,
2013-03-08 17:30:00,52.4,24.2,30.18,NNW,340,2.0,0.0,33,0.00,,SKC,0.00,VWS V14.01,2013-03-08 22:30:00,
2013-03-08 17:35:00,52.1,25.3,30.18,NNW,340,3.0,0.0,35,0.00,,SKC,0.00,VWS V14.01,2013-03-08 22:35:00,
2013-03-08 17:40:00,51.8,25.0,30.18,NW,317,2.0,0.0,35,0.00,,SKC,0.00,VWS V14.01,2013-03-08 22:40:00,
2013-03-08 17:45:00,51.4,25.4,30.18,NW,311,2.0,0.0,36,0.00,,SKC,0.00,VWS V14.01,2013-03-08 22:45:00,
2013-03-08 17:50:00,51.0,25.7,30.18,West,281,1.0,0.0,37,0.00,,SKC,0.00,VWS V14.01,2013-03-08 22:50:00,
2013-03-08 17:55:00,50.6,26.0,30.18,NW,316,1.0,0.0,38,0.00,,SKC,0.00,VWS V14.01,2013-03-08 22:55:00,
2013-03-08 18:00:00,50.1,26.1,30.19,North,359,2.0,0.0,39,0.00,,SKC,0.00,VWS V14.01,2013-03-08 23:00:00,
2013-03-08 18:05:00,49.7,25.8,30.19,NW,315,3.0,0.0,39,0.00,,SKC,0.00,VWS V14.01,2013-03-08 23:05:00,
2013-03-08 18:11:00,49.4,25.5,30.19,WNW,302,1.0,0.0,39,0.00,,SKC,0.00,VWS V14.01,2013-03-08 23:11:00,
2013-03-08 18:18:00,48.8,26.2,30.19,NW,316,0.0,0.0,41,0.00,,SKC,0.00,VWS V14.01,2013-03-08 23:18:00,
2013-03-08 18:24:00,48.2,25.6,30.19,North,350,2.0,0.0,41,0.00,,SKC,0.00,VWS V14.01,2013-03-08 23:24:00,
2013-03-08 18:30:00,48.0,26.0,30.19,NNW,337,1.0,0.0,42,0.00,,SKC,0.00,VWS V14.01,2013-03-08 23:30:00,
2013-03-08 18:35:00,47.6,25.7,30.19,NNW,337,1.0,0.0,42,0.00,,SKC,0.00,VWS V14.01,2013-03-08 23:35:00,
2013-03-08 18:40:00,47.4,25.5,30.19,NNW,337,1.0,0.0,42,0.00,,SKC,0.00,VWS V14.01,2013-03-08 23:40:00,
2013-03-08 18:45:00,47.0,25.1,30.20,North,349,3.0,0.0,42,0.00,,SKC,0.00,VWS V14.01,2013-03-08 23:45:00,
2013-03-08 18:50:00,47.0,25.1,30.20,NNW,328,3.0,0.0,42,0.00,,SKC,0.00,VWS V14.01,2013-03-08 23:50:00,
2013-03-08 18:55:00,46.8,24.9,30.19,NW,323,2.0,0.0,42,0.00,,SKC,0.00,VWS V14.01,2013-03-08 23:55:00,
2013-03-08 19:00:00,45.8,25.1,30.19,NW,325,1.0,0.0,44,0.00,,SKC,0.00,VWS V14.01,2013-03-09 00:00:00,
2013-03-08 19:05:00,45.1,25.0,30.20,NW,325,0.0,0.0,45,0.00,,SKC,0.00,VWS V14.01,2013-03-09 00:05:00,
2013-03-08 19:10:00,44.5,24.5,30.20,NW,325,0.0,0.0,45,0.00,,SKC,0.00,VWS V14.01,2013-03-09 00:10:00,
2013-03-08 19:15:00,43.6,24.7,30.20,NW,325,0.0,0.0,47,0.00,,SKC,0.00,VWS V14.01,2013-03-09 00:15:00,
2013-03-08 19:20:00,43.4,25.5,30.20,WNW,289,1.0,0.0,49,0.00,,SKC,0.00,VWS V14.01,2013-03-09 00:20:00,
2013-03-08 19:25:00,43.4,26.0,30.20,WNW,290,0.0,0.0,50,0.00,,SKC,0.00,VWS V14.01,2013-03-09 00:25:00,
2013-03-08 19:30:00,43.4,26.0,30.20,WNW,290,1.0,0.0,50,0.00,,SKC,0.00,VWS V14.01,2013-03-09 00:30:00,
2013-03-08 19:35:00,43.7,26.3,30.20,WNW,290,1.0,0.0,50,0.00,,SKC,0.00,VWS V14.01,2013-03-09 00:35:00,
2013-03-08 19:40:00,43.5,26.1,30.20,NW,307,0.0,0.0,50,0.00,,SKC,0.00,VWS V14.01,2013-03-09 00:40:00,
2013-03-08 19:45:00,42.9,26.5,30.20,NW,307,0.0,0.0,52,0.00,,SKC,0.00,VWS V14.01,2013-03-09 00:45:00,
2013-03-08 19:52:00,42.4,26.5,30.20,WNW,297,1.0,0.0,53,0.00,,SKC,0.00,VWS V14.01,2013-03-09 00:52:00,
2013-03-08 19:58:00,41.8,26.4,30.20,WNW,297,0.0,0.0,54,0.00,,SKC,0.00,VWS V14.01,2013-03-09 00:58:00,
2013-03-08 20:04:00,41.4,26.5,30.20,East,98,1.0,0.0,55,0.00,,SKC,0.00,VWS V14.01,2013-03-09 01:04:00,
2013-03-08 20:10:00,41.2,26.7,30.20,WNW,293,0.0,0.0,56,0.00,,SKC,0.00,VWS V14.01,2013-03-09 01:10:00,
2013-03-08 20:15:00,41.1,26.6,30.21,WNW,293,0.0,0.0,56,0.00,,SKC,0.00,VWS V14.01,2013-03-09 01:15:00,
2013-03-08 20:20:00,40.6,27.0,30.21,WNW,293,0.0,0.0,58,0.00,,SKC,0.00,VWS V14.01,2013-03-09 01:20:00,
2013-03-08 20:25:00,39.9,26.8,30.21,WNW,293,1.0,0.0,59,0.00,,SKC,0.00,VWS V14.01,2013-03-09 01:25:00,
2013-03-08 20:30:00,40.0,26.8,30.21,WNW,294,1.0,0.0,59,0.00,,SKC,0.00,VWS V14.01,2013-03-09 01:30:00,
2013-03-08 20:35:00,40.1,26.5,30.22,NNW,343,1.0,0.0,58,0.00,,SKC,0.00,VWS V14.01,2013-03-09 01:35:00,
2013-03-08 20:40:00,40.4,26.8,30.22,NNW,342,1.0,0.0,58,0.00,,SKC,0.00,VWS V14.01,2013-03-09 01:40:00,
2013-03-08 20:45:00,40.3,27.1,30.22,NNW,342,0.0,0.0,59,0.00,,SKC,0.00,VWS V14.01,2013-03-09 01:45:00,
2013-03-08 20:50:00,39.8,26.7,30.22,WSW,242,0.0,0.0,59,0.00,,SKC,0.00,VWS V14.01,2013-03-09 01:50:00,
2013-03-08 20:55:00,39.4,26.3,30.22,South,183,0.0,0.0,59,0.00,,SKC,0.00,VWS V14.01,2013-03-09 01:55:00,
2013-03-08 21:00:00,39.0,25.9,30.22,West,278,1.0,0.0,59,0.00,,SKC,0.00,VWS V14.01,2013-03-09 02:00:00,
2013-03-08 21:05:00,39.6,26.5,30.23,West,278,0.0,0.0,59,0.00,,SKC,0.00,VWS V14.01,2013-03-09 02:05:00,
2013-03-08 21:10:00,39.5,26.0,30.23,WSW,253,1.0,0.0,58,0.00,,SKC,0.00,VWS V14.01,2013-03-09 02:10:00,
2013-03-08 21:15:00,39.4,26.3,30.23,WSW,244,1.0,0.0,59,0.00,,SKC,0.00,VWS V14.01,2013-03-09 02:15:00,
2013-03-08 21:20:00,39.4,26.3,30.23,West,264,0.0,0.0,59,0.00,,SKC,0.00,VWS V14.01,2013-03-09 02:20:00,
2013-03-08 21:25:00,39.1,26.4,30.24,SE,136,2.0,0.0,60,0.00,,SKC,0.00,VWS V14.01,2013-03-09 02:25:00,
2013-03-08 21:30:00,38.3,26.4,30.24,South,174,0.0,0.0,62,0.00,,SKC,0.00,VWS V14.01,2013-03-09 02:30:00,
2013-03-08 21:35:00,38.6,26.3,30.24,WNW,284,1.0,0.0,61,0.00,,SKC,0.00,VWS V14.01,2013-03-09 02:35:00,
2013-03-08 21:40:00,38.9,26.2,30.25,WNW,284,0.0,0.0,60,0.00,,SKC,0.00,VWS V14.01,2013-03-09 02:40:00,
2013-03-08 21:45:00,38.7,26.4,30.25,WNW,284,0.0,0.0,61,0.00,,SKC,0.00,VWS V14.01,2013-03-09 02:45:00,
2013-03-08 21:50:00,38.0,25.8,30.25,WNW,283,1.0,0.0,61,0.00,,SKC,0.00,VWS V14.01,2013-03-09 02:50:00,
2013-03-08 21:55:00,38.5,26.2,30.24,WNW,288,1.0,0.0,61,0.00,,SKC,0.00,VWS V14.01,2013-03-09 02:55:00,
2013-03-08 22:00:00,38.7,26.0,30.25,NNW,338,1.0,0.0,60,0.00,,SKC,0.00,VWS V14.01,2013-03-09 03:00:00,
2013-03-08 22:05:00,39.0,26.3,30.25,NNW,332,1.0,0.0,60,0.00,,SKC,0.00,VWS V14.01,2013-03-09 03:05:00,
2013-03-08 22:10:00,39.0,26.3,30.25,North,352,1.0,0.0,60,0.00,,SKC,0.00,VWS V14.01,2013-03-09 03:10:00,
2013-03-08 22:15:00,39.0,26.3,30.25,North,352,0.0,0.0,60,0.00,,SKC,0.00,VWS V14.01,2013-03-09 03:15:00,
2013-03-08 22:20:00,38.5,26.2,30.25,North,352,0.0,0.0,61,0.00,,SKC,0.00,VWS V14.01,2013-03-09 03:20:00,
2013-03-08 22:25:00,37.7,25.9,30.26,North,352,0.0,0.0,62,0.00,,SKC,0.00,VWS V14.01,2013-03-09 03:25:00,
2013-03-08 22:30:00,37.2,25.8,30.25,NNW,342,2.0,0.0,63,0.00,,SKC,0.00,VWS V14.01,2013-03-09 03:30:00,
2013-03-08 22:35:00,38.3,26.0,30.26,NNW,342,1.0,0.0,61,0.00,,SKC,0.00,VWS V14.01,2013-03-09 03:35:00,
2013-03-08 22:40:00,38.5,26.2,30.26,NNW,342,0.0,0.0,61,0.00,,SKC,0.00,VWS V14.01,2013-03-09 03:40:00,
2013-03-08 22:45:00,38.0,26.1,30.26,WSW,253,2.0,0.0,62,0.00,,SKC,0.00,VWS V14.01,2013-03-09 03:45:00,
2013-03-08 22:50:00,37.7,25.9,30.27,SW,226,1.0,0.0,62,0.00,,SKC,0.00,VWS V14.01,2013-03-09 03:50:00,
2013-03-08 22:55:00,37.3,25.9,30.27,SW,236,1.0,0.0,63,0.00,,SKC,0.00,VWS V14.01,2013-03-09 03:55:00,
2013-03-08 23:00:00,37.2,25.8,30.27,WSW,238,0.0,0.0,63,0.00,,SKC,0.00,VWS V14.01,2013-03-09 04:00:00,
2013-03-08 23:05:00,37.2,26.2,30.27,WSW,249,1.0,0.0,64,0.00,,SKC,0.00,VWS V14.01,2013-03-09 04:05:00,
2013-03-08 23:10:00,37.4,26.0,30.27,WSW,246,1.0,0.0,63,0.00,,SKC,0.00,VWS V14.01,2013-03-09 04:10:00,
2013-03-08 23:15:00,37.4,26.0,30.27,WSW,246,0.0,0.0,63,0.00,,SKC,0.00,VWS V14.01,2013-03-09 04:15:00,
2013-03-08 23:20:00,37.1,25.7,30.27,WSW,246,0.0,0.0,63,0.00,,SKC,0.00,VWS V14.01,2013-03-09 04:20:00,
2013-03-08 23:25:00,36.7,25.7,30.27,West,273,0.0,0.0,64,0.00,,SKC,0.00,VWS V14.01,2013-03-09 04:25:00,
2013-03-08 23:30:00,36.5,25.5,30.28,West,271,0.0,0.0,64,0.00,,SKC,0.00,VWS V14.01,2013-03-09 04:30:00,
2013-03-08 23:35:00,36.0,25.4,30.27,West,271,0.0,0.0,65,0.00,,SKC,0.00,VWS V14.01,2013-03-09 04:35:00,
2013-03-08 23:40:00,36.1,25.9,30.27,West,271,0.0,0.0,66,0.00,,SKC,0.00,VWS V14.01,2013-03-09 04:40:00,
2013-03-08 23:45:00,35.8,25.2,30.27,West,271,0.0,0.0,65,0.00,,SKC,0.00,VWS V14.01,2013-03-09 04:45:00,